createdAt,value
2022-09-16T00:00:48.476Z,29.83
2022-09-16T00:03:17.632Z,30.77
2022-09-16T00:05:47.521Z,29.70
2022-09-16T00:08:15.233Z,30.45
2022-09-16T00:10:43.808Z,30.60
2022-09-16T00:13:11.923Z,29.33
2022-09-16T00:15:46.071Z,29.35
2022-09-16T00:18:13.704Z,30.00
2022-09-16T00:20:49.034Z,29.90
2022-09-16T00:23:16.418Z,30.00
2022-09-16T00:25:43.364Z,30.02
2022-09-16T00:28:10.534Z,28.95
2022-09-16T00:30:37.562Z,29.73
2022-09-16T00:33:04.590Z,28.30
2022-09-16T00:35:31.525Z,27.95
2022-09-16T00:37:58.436Z,27.58
2022-09-16T00:40:25.467Z,29.33
2022-09-16T00:42:52.531Z,28.00
2022-09-16T00:45:25.364Z,28.15
2022-09-16T00:47:57.947Z,28.13
2022-09-16T00:50:41.661Z,28.25
2022-09-16T00:53:14.993Z,27.70
2022-09-16T00:55:43.388Z,28.17
2022-09-16T00:58:25.801Z,27.17
2022-09-16T01:00:52.833Z,26.83
2022-09-16T01:03:20.837Z,27.05
2022-09-16T01:05:48.690Z,26.80
2022-09-16T01:08:15.699Z,27.23
2022-09-16T01:10:43.063Z,26.50
2022-09-16T01:13:13.381Z,26.70
2022-09-16T01:16:04.918Z,26.67
2022-09-16T01:18:43.403Z,26.25
2022-09-16T01:21:20.382Z,26.05
2022-09-16T01:23:47.304Z,26.08
2022-09-16T01:26:33.080Z,25.50
2022-09-16T01:29:34.425Z,26.10
2022-09-16T01:32:16.570Z,26.23
2022-09-16T01:34:52.468Z,25.58
2022-09-16T01:37:26.453Z,25.30
2022-09-16T01:40:31.626Z,25.58
2022-09-16T01:45:59.067Z,25.33
2022-09-16T01:48:54.260Z,25.25
2022-09-16T01:52:04.314Z,25.60
2022-09-16T01:55:01.891Z,25.70
2022-09-16T01:57:48.187Z,26.27
2022-09-16T02:00:15.479Z,26.63
2022-09-16T02:02:51.707Z,26.02
2022-09-16T02:05:48.783Z,26.40
2022-09-16T02:08:27.561Z,26.58
2022-09-16T02:10:59.685Z,26.42
2022-09-16T02:13:49.847Z,26.45
2022-09-16T02:16:30.735Z,26.02
2022-09-16T02:19:03.141Z,26.52
2022-09-16T02:21:34.158Z,28.08
2022-09-16T02:24:05.591Z,27.13
2022-09-16T02:26:38.323Z,26.60
2022-09-16T02:29:19.247Z,26.55
2022-09-16T02:31:48.864Z,26.65
2022-09-16T02:34:22.114Z,26.83
2022-09-16T02:36:56.634Z,26.38
2022-09-16T02:39:29.415Z,26.73
2022-09-16T02:41:57.256Z,26.80
2022-09-16T02:44:25.917Z,26.17
2022-09-16T02:47:13.966Z,26.58
2022-09-16T02:49:49.897Z,26.63
2022-09-16T02:52:24.190Z,27.42
2022-09-16T02:54:54.494Z,27.83
2022-09-16T02:57:21.649Z,28.77
2022-09-16T02:59:49.586Z,30.20
2022-09-16T03:02:16.659Z,29.08
2022-09-16T03:04:43.586Z,29.13
2022-09-16T03:07:11.785Z,28.80
2022-09-16T03:09:43.794Z,27.92
2022-09-16T03:12:26.966Z,28.33
2022-09-16T03:15:27.925Z,28.25
2022-09-16T03:18:11.858Z,26.98
2022-09-16T03:21:00.942Z,27.38
2022-09-16T03:24:03.097Z,26.75
2022-09-16T03:26:44.969Z,27.50
2022-09-16T03:29:46.999Z,27.80
2022-09-16T03:32:27.533Z,28.38
2022-09-16T03:34:58.331Z,27.95
2022-09-16T03:37:29.052Z,27.60
2022-09-16T03:40:00.750Z,27.23
2022-09-16T03:42:27.723Z,28.48
2022-09-16T03:44:54.890Z,27.30
2022-09-16T03:47:21.866Z,29.30
2022-09-16T03:49:48.818Z,29.02
2022-09-16T03:52:18.626Z,29.95
2022-09-16T03:54:45.727Z,29.77
2022-09-16T03:57:12.694Z,27.60
2022-09-16T03:59:39.659Z,28.65
2022-09-16T04:02:06.611Z,29.67
2022-09-16T04:04:33.641Z,29.65
2022-09-16T04:07:00.581Z,29.38
2022-09-16T04:09:27.525Z,30.08
2022-09-16T04:11:54.493Z,30.17
2022-09-16T04:14:21.470Z,30.17
2022-09-16T04:16:48.409Z,31.77
2022-09-16T04:19:15.399Z,32.38
2022-09-16T04:21:42.968Z,31.33
2022-09-16T04:24:13.103Z,31.02
2022-09-16T04:26:41.347Z,32.15
2022-09-16T04:29:08.658Z,31.70
2022-09-16T04:31:36.061Z,31.20
2022-09-16T04:34:04.406Z,32.15
2022-09-16T04:36:32.171Z,30.88
2022-09-16T04:38:59.284Z,32.58
2022-09-16T04:41:27.217Z,32.10
2022-09-16T04:43:56.954Z,30.50
2022-09-16T04:46:25.619Z,30.98
2022-09-16T04:48:54.172Z,30.15
2022-09-16T04:51:22.678Z,30.98
2022-09-16T04:53:50.046Z,35.05
2022-09-16T04:56:20.069Z,34.13
2022-09-16T04:58:49.098Z,35.55
2022-09-16T05:01:21.488Z,32.17
2022-09-16T05:03:50.737Z,30.67
2022-09-16T05:06:25.599Z,29.48
2022-09-16T05:08:53.852Z,29.92
2022-09-16T05:11:27.730Z,29.63
2022-09-16T05:13:58.781Z,29.02
2022-09-16T05:16:25.847Z,28.77
2022-09-16T05:18:55.777Z,28.88
2022-09-16T05:21:24.632Z,28.70
2022-09-16T05:23:52.247Z,29.52
2022-09-16T05:26:22.062Z,29.77
2022-09-16T05:28:51.041Z,28.95
2022-09-16T05:31:29.975Z,29.20
2022-09-16T05:34:02.548Z,27.92
2022-09-16T05:36:32.634Z,28.00
2022-09-16T05:39:21.643Z,28.67
2022-09-16T05:41:47.608Z,28.25
2022-09-16T05:44:14.810Z,30.75
2022-09-16T05:46:42.438Z,31.35
2022-09-16T05:49:10.510Z,35.20
2022-09-16T05:51:39.044Z,39.88
2022-09-16T05:54:06.303Z,37.88
2022-09-16T05:56:33.326Z,33.30
2022-09-16T05:59:01.116Z,33.28
2022-09-16T06:01:31.747Z,33.40
2022-09-16T06:04:01.552Z,31.33
2022-09-16T06:06:34.528Z,31.40
2022-09-16T06:09:16.078Z,29.83
2022-09-16T06:11:45.550Z,29.52
2022-09-16T06:14:13.839Z,29.95
2022-09-16T06:16:42.002Z,28.77
2022-09-16T06:19:13.258Z,29.52
2022-09-16T06:21:41.258Z,28.60
2022-09-16T06:24:09.165Z,28.25
2022-09-16T06:26:38.506Z,27.05
2022-09-16T06:29:06.518Z,27.35
2022-09-16T06:31:34.958Z,28.13
2022-09-16T06:34:02.567Z,26.27
2022-09-16T06:36:32.440Z,26.52
2022-09-16T06:38:59.402Z,26.05
2022-09-16T06:41:26.592Z,26.88
2022-09-16T06:43:53.961Z,24.60
2022-09-16T06:46:30.369Z,25.20
2022-09-16T06:49:01.566Z,24.73
2022-09-16T06:51:32.533Z,23.45
2022-09-16T06:54:02.665Z,23.30
2022-09-16T06:56:29.658Z,22.85
2022-09-16T06:58:57.458Z,23.27
2022-09-16T07:01:28.332Z,23.52
2022-09-16T07:03:57.522Z,23.63
2022-09-16T07:06:45.175Z,21.33
2022-09-16T07:09:15.012Z,21.25
2022-09-16T07:11:42.131Z,21.75
2022-09-16T07:14:09.810Z,21.77
2022-09-16T07:16:36.830Z,20.45
2022-09-16T07:19:04.449Z,19.00
2022-09-16T07:21:32.339Z,19.23
2022-09-16T07:24:02.653Z,18.70
2022-09-16T07:26:31.978Z,19.02
2022-09-16T07:29:02.163Z,18.33
2022-09-16T07:31:31.843Z,17.23
2022-09-16T07:34:04.325Z,17.10
2022-09-16T07:36:38.770Z,17.23
2022-09-16T07:39:06.211Z,16.98
2022-09-16T07:41:38.068Z,16.98
2022-09-16T07:44:06.534Z,16.65
2022-09-16T07:46:36.407Z,16.35
2022-09-16T07:49:05.837Z,17.02
2022-09-16T07:51:33.311Z,17.20
2022-09-16T07:54:04.382Z,17.63
2022-09-16T07:56:36.418Z,17.05
2022-09-16T07:59:06.239Z,16.67
2022-09-16T08:01:33.440Z,16.90
2022-09-16T08:04:01.740Z,17.27
2022-09-16T08:06:31.132Z,18.05
2022-09-16T08:09:10.196Z,18.85
2022-09-16T08:11:46.940Z,18.83
2022-09-16T08:14:13.862Z,19.08
2022-09-16T08:16:40.900Z,19.67
2022-09-16T08:19:09.247Z,19.80
2022-09-16T08:21:36.220Z,19.55
2022-09-16T08:24:03.189Z,20.33
2022-09-16T08:26:30.184Z,20.13
2022-09-16T08:29:08.513Z,20.35
2022-09-16T08:31:37.419Z,20.05
2022-09-16T08:34:05.006Z,19.52
2022-09-16T08:36:33.680Z,19.85
2022-09-16T08:39:01.057Z,20.67
2022-09-16T08:42:04.559Z,20.13
2022-09-16T08:44:54.267Z,19.30
2022-09-16T08:47:55.115Z,20.02
2022-09-16T08:50:32.611Z,21.08
2022-09-16T08:53:03.161Z,21.23
2022-09-16T08:55:41.770Z,20.88
2022-09-16T08:58:16.743Z,19.35
2022-09-16T09:00:45.778Z,18.77
2022-09-16T09:03:36.958Z,18.70
2022-09-16T09:06:17.572Z,18.25
2022-09-16T09:08:51.251Z,17.73
2022-09-16T09:11:28.746Z,18.92
2022-09-16T09:14:01.786Z,17.83
2022-09-16T09:16:44.493Z,16.75
2022-09-16T09:19:14.267Z,16.67
2022-09-16T09:22:23.210Z,16.80
2022-09-16T09:25:21.683Z,16.65
2022-09-16T09:28:23.532Z,16.98
2022-09-16T09:31:06.345Z,17.20
2022-09-16T09:34:06.779Z,16.60
2022-09-16T09:36:44.657Z,16.35
2022-09-16T09:39:52.471Z,16.48
2022-09-16T09:42:29.966Z,16.67
2022-09-16T09:45:05.138Z,16.48
2022-09-16T09:47:44.152Z,16.35
2022-09-16T09:50:28.486Z,16.70
2022-09-16T09:53:19.195Z,16.58
2022-09-16T09:55:46.401Z,16.35
2022-09-16T09:58:23.246Z,16.17
2022-09-16T10:00:53.295Z,15.75
2022-09-16T10:03:20.497Z,16.00
2022-09-16T10:05:48.245Z,15.73
2022-09-16T10:08:16.608Z,15.45
2022-09-16T10:10:49.413Z,15.13
2022-09-16T10:13:17.594Z,15.50
2022-09-16T10:15:45.381Z,15.50
2022-09-16T10:18:25.103Z,15.68
2022-09-16T10:21:05.982Z,15.15
2022-09-16T10:23:34.308Z,16.08
2022-09-16T10:26:06.874Z,15.73
2022-09-16T10:28:33.865Z,15.55
2022-09-16T10:31:01.926Z,15.57
2022-09-16T10:33:41.649Z,15.93
2022-09-16T10:36:19.765Z,15.45
2022-09-16T10:39:02.298Z,15.18
2022-09-16T10:41:46.456Z,15.32
2022-09-16T10:44:39.743Z,15.52
2022-09-16T10:47:16.644Z,15.30
2022-09-16T10:49:51.389Z,15.55
2022-09-16T10:52:23.119Z,16.10
2022-09-16T10:54:50.643Z,15.73
2022-09-16T10:57:25.374Z,15.63
2022-09-16T11:00:14.809Z,16.05
2022-09-16T11:03:09.405Z,15.82
2022-09-16T11:06:10.183Z,16.50
2022-09-16T11:08:37.064Z,15.90
2022-09-16T11:11:11.807Z,16.25
2022-09-16T11:14:03.252Z,16.60
2022-09-16T11:17:04.188Z,16.92
2022-09-16T11:19:58.981Z,16.80
2022-09-16T11:22:34.934Z,16.33
2022-09-16T11:25:20.205Z,15.98
2022-09-16T11:28:04.473Z,16.25
2022-09-16T11:30:38.090Z,16.05
2022-09-16T11:33:23.253Z,16.20
2022-09-16T11:36:08.455Z,16.38
2022-09-16T11:39:18.737Z,16.27
2022-09-16T11:41:50.564Z,17.85
2022-09-16T11:44:28.022Z,16.83
2022-09-16T11:47:32.988Z,16.42
2022-09-16T11:50:17.822Z,16.70
2022-09-16T11:53:29.216Z,16.92
2022-09-16T11:56:03.864Z,16.75
2022-09-16T11:58:43.167Z,17.30
2022-09-16T12:01:35.357Z,16.92
2022-09-16T12:04:09.514Z,17.63
2022-09-16T12:07:06.621Z,17.02
2022-09-16T12:09:41.827Z,16.92
2022-09-16T12:12:28.994Z,16.95
2022-09-16T12:15:06.762Z,17.05
2022-09-16T12:17:42.578Z,16.75
2022-09-16T12:20:23.919Z,17.17
2022-09-16T12:23:14.791Z,16.95
2022-09-16T12:26:03.077Z,16.92
2022-09-16T12:28:37.196Z,17.40
2022-09-16T12:31:14.153Z,17.40
2022-09-16T12:33:46.746Z,17.60
2022-09-16T12:36:23.273Z,25.85
2022-09-16T12:38:51.101Z,18.23
2022-09-16T12:41:30.250Z,18.15
2022-09-16T12:44:34.703Z,18.27
2022-09-16T12:47:05.191Z,17.70
2022-09-16T12:49:59.900Z,17.25
2022-09-16T12:52:40.084Z,18.10
2022-09-16T12:55:09.929Z,18.92
2022-09-16T12:57:49.724Z,20.00
2022-09-16T13:00:19.437Z,20.20
2022-09-16T13:02:55.328Z,18.83
2022-09-16T13:05:27.195Z,19.63
2022-09-16T13:08:00.791Z,19.08
2022-09-16T13:10:54.005Z,18.98
2022-09-16T13:13:36.240Z,19.00
2022-09-16T13:16:05.873Z,18.52
2022-09-16T13:18:43.894Z,17.88
2022-09-16T13:21:16.721Z,17.90
2022-09-16T13:23:47.830Z,18.48
2022-09-16T13:26:15.141Z,18.73
2022-09-16T13:28:44.337Z,19.27
2022-09-16T13:31:11.667Z,18.20
2022-09-16T13:33:57.701Z,18.38
2022-09-16T13:36:24.655Z,19.25
2022-09-16T13:39:31.450Z,17.85
2022-09-16T13:42:25.426Z,18.20
2022-09-16T13:44:52.844Z,17.33
2022-09-16T13:47:31.818Z,17.70
2022-09-16T13:50:16.110Z,17.05
2022-09-16T13:52:44.246Z,17.45
2022-09-16T13:55:22.375Z,17.90
2022-09-16T13:58:13.963Z,17.13
2022-09-16T14:00:46.073Z,17.75
2022-09-16T14:03:31.087Z,17.63
2022-09-16T14:06:19.098Z,17.88
2022-09-16T14:09:06.409Z,17.50
2022-09-16T14:11:52.785Z,18.30
2022-09-16T14:17:22.280Z,16.98
2022-09-16T14:19:52.782Z,17.52
2022-09-16T14:22:26.850Z,17.10
2022-09-16T14:25:05.901Z,17.40
2022-09-16T14:27:39.817Z,18.05
2022-09-16T14:30:14.800Z,17.20
2022-09-16T14:32:42.086Z,17.70
2022-09-16T14:35:17.838Z,17.55
2022-09-16T14:37:47.144Z,18.58
2022-09-16T14:40:16.747Z,18.25
2022-09-16T14:42:51.400Z,16.83
2022-09-16T14:45:18.667Z,17.60
2022-09-16T14:47:51.670Z,18.88
2022-09-16T14:50:40.128Z,17.20
2022-09-16T14:53:26.857Z,16.92
2022-09-16T14:56:00.854Z,16.50
2022-09-16T14:58:31.178Z,17.20
2022-09-16T15:01:10.392Z,17.15
2022-09-16T15:03:42.384Z,16.90
2022-09-16T15:06:16.391Z,16.77
2022-09-16T15:08:58.663Z,17.10
2022-09-16T15:11:47.567Z,17.10
2022-09-16T15:14:16.504Z,17.05
2022-09-16T15:16:49.871Z,17.27
2022-09-16T15:19:27.448Z,17.50
2022-09-16T15:21:54.924Z,17.33
2022-09-16T15:24:29.096Z,17.50
2022-09-16T15:29:30.332Z,17.75
2022-09-16T15:34:33.946Z,17.27
2022-09-16T15:37:00.863Z,17.38
2022-09-16T15:39:30.685Z,17.10
2022-09-16T15:42:12.591Z,16.95
2022-09-16T15:44:49.061Z,17.00
2022-09-16T15:47:27.374Z,16.83
2022-09-16T15:50:03.182Z,16.20
2022-09-16T15:52:34.622Z,16.75
2022-09-16T15:55:05.166Z,16.17
2022-09-16T15:57:44.189Z,16.45
2022-09-16T16:00:15.140Z,15.93
2022-09-16T16:02:42.090Z,17.23
2022-09-16T16:05:22.072Z,19.85
2022-09-16T16:07:50.713Z,17.52
2022-09-16T16:10:36.398Z,16.58
2022-09-16T16:13:05.970Z,16.73
2022-09-16T16:15:39.097Z,16.73
2022-09-16T16:18:08.737Z,16.05
2022-09-16T16:20:37.535Z,16.33
2022-09-16T16:23:04.519Z,17.67
2022-09-16T16:25:31.828Z,18.75
2022-09-16T16:27:58.734Z,17.85
2022-09-16T16:30:25.685Z,16.48
2022-09-16T16:32:52.629Z,16.55
2022-09-16T16:35:19.541Z,16.70
2022-09-16T16:37:47.607Z,16.90
2022-09-16T16:40:15.609Z,16.25
2022-09-16T16:42:44.051Z,16.35
2022-09-16T16:45:14.724Z,16.92
2022-09-16T16:47:42.753Z,16.70
2022-09-16T16:50:10.314Z,17.38
2022-09-16T16:52:37.357Z,17.33
2022-09-16T16:55:05.199Z,17.73
2022-09-16T16:57:32.254Z,17.00
2022-09-16T16:59:59.232Z,17.67
2022-09-16T17:02:26.379Z,17.13
2022-09-16T17:04:53.463Z,17.63
2022-09-16T17:07:28.300Z,17.65
2022-09-16T17:09:58.943Z,18.20
2022-09-16T17:12:26.751Z,17.88
2022-09-16T17:14:53.804Z,18.23
2022-09-16T17:17:20.795Z,16.80
2022-09-16T17:19:47.830Z,17.13
2022-09-16T17:22:14.749Z,17.50
2022-09-16T17:24:41.651Z,16.95
2022-09-16T17:27:08.611Z,17.02
2022-09-16T17:29:35.700Z,17.00
2022-09-16T17:32:03.383Z,16.90
2022-09-16T17:34:31.369Z,17.35
2022-09-16T17:36:58.760Z,16.90
2022-09-16T17:39:26.189Z,16.80
2022-09-16T17:41:56.681Z,17.10
2022-09-16T17:44:23.803Z,17.75
2022-09-16T17:46:50.734Z,16.80
2022-09-16T17:49:23.827Z,17.25
2022-09-16T17:51:52.065Z,18.13
2022-09-16T17:54:19.333Z,17.05
2022-09-16T17:56:46.429Z,17.05
2022-09-16T17:59:16.419Z,17.02
2022-09-16T18:01:43.635Z,16.85
2022-09-16T18:04:10.638Z,16.48
2022-09-16T18:06:43.889Z,16.38
2022-09-16T18:09:11.646Z,16.27
2022-09-16T18:11:39.191Z,15.85
2022-09-16T18:14:08.266Z,16.15
2022-09-16T18:16:35.990Z,15.90
2022-09-16T18:19:04.230Z,15.85
2022-09-16T18:21:31.972Z,15.82
2022-09-16T18:24:03.430Z,15.70
2022-09-16T18:26:31.835Z,15.57
2022-09-16T18:29:10.534Z,15.93
2022-09-16T18:31:43.829Z,15.88
2022-09-16T18:34:11.522Z,16.10
2022-09-16T18:36:39.574Z,16.58
2022-09-16T18:39:10.416Z,17.05
2022-09-16T18:41:40.102Z,16.55
2022-09-16T18:44:12.859Z,16.83
2022-09-16T18:46:40.095Z,16.50
2022-09-16T18:49:07.613Z,16.63
2022-09-16T18:51:39.885Z,16.25
2022-09-16T18:54:12.855Z,16.02
2022-09-16T18:56:41.241Z,16.33
2022-09-16T18:59:22.656Z,16.02
2022-09-16T19:01:52.187Z,15.60
2022-09-16T19:04:24.790Z,15.82
2022-09-16T19:06:53.843Z,15.45
2022-09-16T19:09:23.521Z,15.65
2022-09-16T19:11:53.101Z,15.85
2022-09-16T19:14:24.325Z,15.40
2022-09-16T19:16:51.451Z,15.52
2022-09-16T19:19:19.558Z,15.48
2022-09-16T19:21:47.401Z,15.32
2022-09-16T19:24:20.197Z,15.15
2022-09-16T19:26:49.171Z,14.93
2022-09-16T19:29:18.885Z,15.32
2022-09-16T19:31:54.788Z,15.20
2022-09-16T19:34:23.383Z,15.13
2022-09-16T19:36:50.499Z,15.15
2022-09-16T19:39:18.488Z,15.00
2022-09-16T19:41:45.445Z,15.15
2022-09-16T19:44:15.773Z,14.93
2022-09-16T19:46:43.220Z,15.45
2022-09-16T19:49:17.437Z,15.07
2022-09-16T19:54:11.674Z,15.02
2022-09-16T19:56:38.634Z,15.05
2022-09-16T19:59:06.094Z,14.80
2022-09-16T20:01:35.071Z,15.20
2022-09-16T20:04:03.966Z,15.07
2022-09-16T20:06:36.156Z,15.23
2022-09-16T20:09:06.490Z,14.98
2022-09-16T20:11:37.333Z,14.80
2022-09-16T20:14:07.483Z,14.85
2022-09-16T20:16:39.384Z,15.00
2022-09-16T20:19:08.934Z,14.90
2022-09-16T20:21:36.393Z,14.45
2022-09-16T20:24:05.986Z,14.75
2022-09-16T20:26:33.448Z,14.73
2022-09-16T20:29:00.823Z,14.73
2022-09-16T20:31:33.385Z,14.70
2022-09-16T20:34:00.768Z,15.43
2022-09-16T20:36:30.796Z,14.88
2022-09-16T20:39:00.435Z,14.93
2022-09-16T20:41:30.247Z,14.73
2022-09-16T20:43:57.790Z,15.07
2022-09-16T20:46:27.796Z,14.82
2022-09-16T20:48:59.997Z,15.10
2022-09-16T20:51:29.138Z,15.10
2022-09-16T20:54:01.698Z,15.40
2022-09-16T20:56:37.758Z,15.20
2022-09-16T20:59:07.741Z,14.90
2022-09-16T21:01:35.890Z,15.30
2022-09-16T21:04:05.346Z,15.20
2022-09-16T21:06:34.742Z,15.07
2022-09-16T21:09:05.599Z,15.10
2022-09-16T21:11:33.297Z,15.38
2022-09-16T21:14:08.758Z,15.18
2022-09-16T21:16:37.986Z,15.52
2022-09-16T21:19:09.897Z,15.77
2022-09-16T21:21:39.768Z,15.20
2022-09-16T21:24:07.378Z,14.77
2022-09-16T21:26:36.509Z,15.20
2022-09-16T21:29:12.575Z,15.35
2022-09-16T21:31:41.370Z,15.48
2022-09-16T21:34:14.105Z,15.52
2022-09-16T21:36:41.605Z,15.30
2022-09-16T21:39:08.837Z,15.43
2022-09-16T21:41:36.413Z,15.27
2022-09-16T21:44:04.141Z,15.05
2022-09-16T21:46:43.221Z,14.63
2022-09-16T21:49:29.126Z,15.25
2022-09-16T21:51:58.379Z,15.45
2022-09-16T21:54:25.841Z,15.32
2022-09-16T21:56:53.265Z,15.02
2022-09-16T21:59:20.998Z,14.95
2022-09-16T22:01:50.193Z,14.68
2022-09-16T22:04:25.570Z,14.50
2022-09-16T22:06:54.918Z,14.25
2022-09-16T22:09:22.634Z,14.25
2022-09-16T22:11:49.630Z,14.40
2022-09-16T22:14:17.173Z,14.45
2022-09-16T22:16:44.781Z,14.43
2022-09-16T22:19:15.885Z,13.98
2022-09-16T22:21:45.327Z,14.35
2022-09-16T22:24:12.791Z,14.48
2022-09-16T22:26:40.368Z,14.50
2022-09-16T22:29:09.519Z,14.57
2022-09-16T22:31:38.656Z,14.15
2022-09-16T22:34:05.796Z,14.35
2022-09-16T22:36:34.566Z,14.23
2022-09-16T22:39:21.034Z,14.30
2022-09-16T22:41:47.977Z,14.68
2022-09-16T22:44:15.252Z,14.75
2022-09-16T22:46:45.264Z,14.95
2022-09-16T22:49:12.975Z,15.52
2022-09-16T22:51:40.124Z,15.80
2022-09-16T22:54:08.297Z,16.20
2022-09-16T22:56:36.025Z,16.38
2022-09-16T22:59:05.622Z,16.33
2022-09-16T23:01:35.580Z,16.90
2022-09-16T23:04:04.629Z,17.30
2022-09-16T23:06:33.097Z,17.38
2022-09-16T23:09:00.610Z,17.10
2022-09-16T23:11:30.689Z,17.20
2022-09-16T23:13:58.252Z,17.40
2022-09-16T23:16:34.690Z,17.00
2022-09-16T23:19:04.560Z,17.65
2022-09-16T23:21:31.797Z,17.55
2022-09-16T23:24:01.082Z,17.92
2022-09-16T23:26:31.237Z,17.80
2022-09-16T23:28:59.734Z,17.33
2022-09-16T23:31:29.520Z,17.00
2022-09-16T23:33:57.127Z,16.85
2022-09-16T23:36:25.950Z,16.50
2022-09-16T23:38:53.911Z,16.80
2022-09-16T23:41:23.183Z,16.17
2022-09-16T23:43:50.960Z,16.40
2022-09-16T23:46:21.014Z,16.55
2022-09-16T23:48:51.092Z,16.38
2022-09-16T23:51:21.770Z,16.30
2022-09-16T23:53:52.056Z,15.95
2022-09-16T23:56:21.961Z,16.17
2022-09-16T23:58:50.610Z,16.48
